ITY170 LIRF-LSZH
Flight info
| Callsign | ITY170 |
|---|---|
| Flight time | N/A |
| Altitude | 40000 |
| Route | SOSIV5A SOVAN DCT AMTEL DCT PEPAG DCT CANNE Z651 KELIP KELIP3G |
| Aircraft | A339/H-SDE3FGHIRWY/5544 |
Departure
| Time | 2026-05-04 23:12 |
|---|---|
| Airport | Rome–Fiumicino Leonardo da Vinci International Airport (LIRF) |
Arrival
| Time | N/A |
|---|---|
| Airport | Zürich Airport (LSZH) |
| Time | Latitude | Longitude | Altitude | Speed | Heading |
|---|---|---|---|---|---|
| 2026-05-04 22:59 | 41.79850 | 12.24735 | 21 ft | 0 kts | 205° |
| 2026-05-04 23:04 | 41.79862 | 12.24741 | 26 ft | 6 kts | 213° |
| 2026-05-04 23:05 | 41.79899 | 12.24798 | 27 ft | 8 kts | 266° |
| 2026-05-04 23:05 | 41.79881 | 12.24863 | 28 ft | 7 kts | 323° |
| 2026-05-04 23:05 | 41.79865 | 12.24878 | 28 ft | 0 kts | 340° |
| 2026-05-04 23:08 | 41.79875 | 12.24873 | 25 ft | 6 kts | 340° |
| 2026-05-04 23:08 | 41.79959 | 12.24832 | 23 ft | 19 kts | 340° |
| 2026-05-04 23:08 | 41.80105 | 12.24850 | 25 ft | 25 kts | 52° |
| 2026-05-04 23:09 | 41.80192 | 12.25059 | 27 ft | 29 kts | 50° |
| 2026-05-04 23:09 | 41.80279 | 12.25341 | 27 ft | 36 kts | 70° |
| 2026-05-04 23:09 | 41.80375 | 12.25691 | 27 ft | 43 kts | 70° |
| 2026-05-04 23:09 | 41.80480 | 12.26073 | 22 ft | 43 kts | 69° |
| 2026-05-04 23:10 | 41.80581 | 12.26437 | 25 ft | 40 kts | 70° |
| 2026-05-04 23:10 | 41.80677 | 12.26789 | 19 ft | 40 kts | 69° |
| 2026-05-04 23:10 | 41.80748 | 12.27016 | 16 ft | 14 kts | 54° |
| 2026-05-04 23:10 | 41.80836 | 12.27028 | 16 ft | 14 kts | 347° |
| 2026-05-04 23:11 | 41.80928 | 12.26974 | 17 ft | 14 kts | 318° |
| 2026-05-04 23:11 | 41.80937 | 12.26848 | 17 ft | 15 kts | 256° |
| 2026-05-04 23:11 | 41.80877 | 12.26625 | 19 ft | 57 kts | 249° |
| 2026-05-04 23:11 | 41.80615 | 12.25693 | 26 ft | 153 kts | 250° |
| 2026-05-04 23:12 | 41.80182 | 12.24106 | 414 ft | 188 kts | 250° |
| 2026-05-04 23:12 | 41.79759 | 12.22503 | 1509 ft | 184 kts | 250° |
| 2026-05-04 23:12 | 41.79357 | 12.20838 | 2574 ft | 188 kts | 257° |
| 2026-05-04 23:12 | 41.79234 | 12.19088 | 3447 ft | 194 kts | 268° |
| 2026-05-04 23:13 | 41.79215 | 12.17245 | 4263 ft | 200 kts | 268° |
| 2026-05-04 23:13 | 41.79193 | 12.15369 | 5132 ft | 203 kts | 266° |
| 2026-05-04 23:13 | 41.79155 | 12.13462 | 5925 ft | 209 kts | 265° |
| 2026-05-04 23:13 | 41.79102 | 12.11417 | 6417 ft | 230 kts | 265° |
| 2026-05-04 23:14 | 41.79036 | 12.09169 | 6810 ft | 252 kts | 265° |
| 2026-05-04 23:14 | 41.79002 | 12.06723 | 7162 ft | 273 kts | 268° |
| 2026-05-04 23:14 | 41.79006 | 12.04149 | 7800 ft | 279 kts | 269° |
| 2026-05-04 23:14 | 41.79126 | 12.01536 | 8525 ft | 285 kts | 281° |
| 2026-05-04 23:15 | 41.79946 | 11.99122 | 9374 ft | 288 kts | 306° |
| 2026-05-04 23:15 | 41.81428 | 11.97353 | 10147 ft | 293 kts | 329° |
| 2026-05-04 23:15 | 41.83385 | 11.96467 | 10622 ft | 309 kts | 352° |
| 2026-05-04 23:15 | 41.85603 | 11.96551 | 10844 ft | 330 kts | 7° |
| 2026-05-04 23:16 | 41.87937 | 11.97055 | 11153 ft | 346 kts | 9° |
| 2026-05-04 23:16 | 41.90333 | 11.97511 | 11827 ft | 349 kts | 7° |
| 2026-05-04 23:16 | 41.92769 | 11.97819 | 12503 ft | 352 kts | 4° |
| 2026-05-04 23:16 | 41.95226 | 11.98011 | 13155 ft | 356 kts | 2° |
| 2026-05-04 23:17 | 41.97714 | 11.98140 | 13834 ft | 359 kts | 1° |
| 2026-05-04 23:17 | 42.00223 | 11.98246 | 14437 ft | 362 kts | 1° |
| 2026-05-04 23:17 | 42.02750 | 11.98348 | 15050 ft | 365 kts | 1° |
| 2026-05-04 23:17 | 42.05302 | 11.98455 | 15664 ft | 368 kts | 1° |
| 2026-05-04 23:18 | 42.07877 | 11.98566 | 16243 ft | 371 kts | 1° |
| 2026-05-04 23:18 | 42.10468 | 11.98681 | 16840 ft | 374 kts | 1° |
| 2026-05-04 23:18 | 42.13084 | 11.98799 | 17427 ft | 377 kts | 1° |
| 2026-05-04 23:18 | 42.15717 | 11.98918 | 18003 ft | 380 kts | 0° |
| 2026-05-04 23:19 | 42.18377 | 11.99036 | 18557 ft | 384 kts | 0° |
| 2026-05-04 23:19 | 42.21053 | 11.99157 | 19100 ft | 386 kts | 0° |
| 2026-05-04 23:19 | 42.23745 | 11.99279 | 19619 ft | 389 kts | 0° |
| 2026-05-04 23:19 | 42.26423 | 11.99401 | 20144 ft | 391 kts | 0° |
| 2026-05-04 23:20 | 42.29156 | 11.99526 | 20671 ft | 394 kts | 0° |
| 2026-05-04 23:20 | 42.31907 | 11.99650 | 21201 ft | 397 kts | 360° |
| 2026-05-04 23:20 | 42.34674 | 11.99775 | 21745 ft | 399 kts | 359° |
| 2026-05-04 23:20 | 42.37457 | 11.99621 | 22268 ft | 400 kts | 352° |
| 2026-05-04 23:21 | 42.40213 | 11.99024 | 22798 ft | 402 kts | 347° |
| 2026-05-04 23:21 | 42.42978 | 11.98375 | 23355 ft | 405 kts | 348° |
| 2026-05-04 23:21 | 42.45768 | 11.97740 | 23870 ft | 408 kts | 348° |
| 2026-05-04 23:21 | 42.48580 | 11.97106 | 24357 ft | 410 kts | 348° |
| 2026-05-04 23:22 | 42.51405 | 11.96470 | 24824 ft | 412 kts | 348° |
| 2026-05-04 23:22 | 42.54250 | 11.95828 | 25300 ft | 414 kts | 348° |
| 2026-05-04 23:22 | 42.57067 | 11.95191 | 25761 ft | 417 kts | 348° |
| 2026-05-04 23:22 | 42.59938 | 11.94541 | 26226 ft | 419 kts | 347° |
| 2026-05-04 23:23 | 42.62824 | 11.93886 | 26666 ft | 422 kts | 347° |
| 2026-05-04 23:23 | 42.65720 | 11.93228 | 27109 ft | 424 kts | 347° |
| 2026-05-04 23:23 | 42.68648 | 11.92562 | 27551 ft | 427 kts | 347° |
| 2026-05-04 23:23 | 42.71584 | 11.91894 | 27973 ft | 430 kts | 347° |
| 2026-05-04 23:24 | 42.74544 | 11.91220 | 28383 ft | 432 kts | 347° |
| 2026-05-04 23:24 | 42.77520 | 11.90541 | 28796 ft | 435 kts | 347° |
| 2026-05-04 23:24 | 42.80515 | 11.89818 | 29196 ft | 436 kts | 344° |
| 2026-05-04 23:24 | 42.83433 | 11.88704 | 29584 ft | 436 kts | 338° |
| 2026-05-04 23:25 | 42.86244 | 11.87136 | 29975 ft | 436 kts | 331° |
| 2026-05-04 23:25 | 42.88927 | 11.85195 | 30349 ft | 437 kts | 328° |
| 2026-05-04 23:25 | 42.91572 | 11.83241 | 30715 ft | 439 kts | 328° |
| 2026-05-04 23:25 | 42.94275 | 11.81267 | 31091 ft | 442 kts | 328° |
| 2026-05-04 23:26 | 42.96993 | 11.79286 | 31470 ft | 444 kts | 328° |
| 2026-05-04 23:26 | 42.99723 | 11.77292 | 31836 ft | 446 kts | 328° |
| 2026-05-04 23:26 | 43.02465 | 11.75284 | 32200 ft | 448 kts | 328° |
| 2026-05-04 23:26 | 43.05218 | 11.73264 | 32549 ft | 450 kts | 328° |
| 2026-05-04 23:27 | 43.07985 | 11.71230 | 32838 ft | 452 kts | 328° |
| 2026-05-04 23:27 | 43.10760 | 11.69188 | 33117 ft | 454 kts | 328° |
| 2026-05-04 23:27 | 43.13548 | 11.67133 | 33361 ft | 456 kts | 328° |
| 2026-05-04 23:27 | 43.16349 | 11.65067 | 33559 ft | 457 kts | 328° |
| 2026-05-04 23:28 | 43.19124 | 11.63020 | 33795 ft | 458 kts | 327° |
| 2026-05-04 23:28 | 43.21920 | 11.60940 | 34048 ft | 456 kts | 326° |
| 2026-05-04 23:28 | 43.24605 | 11.58643 | 34260 ft | 454 kts | 323° |
| 2026-05-04 23:28 | 43.27269 | 11.56310 | 34483 ft | 454 kts | 323° |
| 2026-05-04 23:29 | 43.29941 | 11.53986 | 34669 ft | 454 kts | 323° |
| 2026-05-04 23:29 | 43.32604 | 11.51673 | 34884 ft | 454 kts | 323° |
| 2026-05-04 23:29 | 43.35290 | 11.49338 | 35098 ft | 454 kts | 323° |
| 2026-05-04 23:29 | 43.37930 | 11.47041 | 35301 ft | 454 kts | 323° |
| 2026-05-04 23:30 | 43.40602 | 11.44711 | 35528 ft | 454 kts | 324° |
| 2026-05-04 23:30 | 43.43268 | 11.42383 | 35734 ft | 453 kts | 324° |
| 2026-05-04 23:30 | 43.45926 | 11.40058 | 35955 ft | 453 kts | 324° |
| 2026-05-04 23:30 | 43.48588 | 11.37728 | 36167 ft | 453 kts | 324° |
| 2026-05-04 23:31 | 43.51246 | 11.35398 | 36367 ft | 452 kts | 324° |
| 2026-05-04 23:31 | 43.53898 | 11.33070 | 36598 ft | 452 kts | 324° |
| 2026-05-04 23:31 | 43.56551 | 11.30738 | 36801 ft | 451 kts | 324° |
| 2026-05-04 23:31 | 43.59196 | 11.28411 | 37016 ft | 451 kts | 324° |
| 2026-05-04 23:32 | 43.61838 | 11.26084 | 37195 ft | 451 kts | 324° |
| 2026-05-04 23:32 | 43.64484 | 11.23751 | 37422 ft | 450 kts | 324° |
| 2026-05-04 23:32 | 43.67125 | 11.21421 | 37612 ft | 450 kts | 324° |
| 2026-05-04 23:32 | 43.69724 | 11.19124 | 37817 ft | 450 kts | 324° |
| 2026-05-04 23:33 | 43.72391 | 11.16766 | 38008 ft | 449 kts | 324° |
| 2026-05-04 23:33 | 43.74991 | 11.14465 | 38197 ft | 449 kts | 324° |
| 2026-05-04 23:33 | 43.77622 | 11.12134 | 38371 ft | 449 kts | 324° |
| 2026-05-04 23:33 | 43.80257 | 11.09796 | 38602 ft | 448 kts | 324° |
| 2026-05-04 23:34 | 43.82878 | 11.07469 | 38768 ft | 448 kts | 324° |
| 2026-05-04 23:34 | 43.85507 | 11.05131 | 38925 ft | 448 kts | 324° |
| 2026-05-04 23:34 | 43.88130 | 11.02796 | 39059 ft | 449 kts | 324° |
| 2026-05-04 23:34 | 43.90762 | 11.00452 | 39193 ft | 449 kts | 324° |
| 2026-05-04 23:35 | 43.93392 | 10.98106 | 39314 ft | 450 kts | 324° |
| 2026-05-04 23:35 | 43.96026 | 10.95755 | 39439 ft | 450 kts | 324° |
| 2026-05-04 23:35 | 43.98660 | 10.93401 | 39599 ft | 450 kts | 324° |
| 2026-05-04 23:35 | 44.01296 | 10.91043 | 39717 ft | 451 kts | 323° |
| 2026-05-04 23:36 | 44.03935 | 10.88679 | 39855 ft | 451 kts | 323° |
| 2026-05-04 23:36 | 44.06572 | 10.86315 | 39991 ft | 452 kts | 323° |
| 2026-05-04 23:36 | 44.09214 | 10.83944 | 40124 ft | 452 kts | 323° |
| 2026-05-04 23:36 | 44.11864 | 10.81563 | 40170 ft | 452 kts | 323° |
| 2026-05-04 23:37 | 44.17160 | 10.76800 | 40174 ft | 454 kts | 324° |
| 2026-05-04 23:37 | 44.22467 | 10.72011 | 40162 ft | 459 kts | 323° |
| 2026-05-04 23:38 | 44.27847 | 10.67149 | 40154 ft | 462 kts | 324° |
| 2026-05-04 23:38 | 44.33250 | 10.62254 | 40146 ft | 464 kts | 324° |
| 2026-05-04 23:39 | 44.37752 | 10.58167 | 40143 ft | 464 kts | 324° |
| 2026-05-04 23:39 | 44.43175 | 10.53236 | 40140 ft | 465 kts | 324° |
| 2026-05-04 23:40 | 44.48594 | 10.48296 | 40134 ft | 465 kts | 324° |
| 2026-05-04 23:40 | 44.54022 | 10.43339 | 40119 ft | 467 kts | 323° |
| 2026-05-04 23:41 | 44.59476 | 10.38344 | 40118 ft | 467 kts | 323° |
| 2026-05-04 23:41 | 44.64923 | 10.33342 | 40109 ft | 468 kts | 323° |
| 2026-05-04 23:42 | 44.70370 | 10.28332 | 40107 ft | 468 kts | 323° |
| 2026-05-04 23:42 | 44.75823 | 10.23306 | 40100 ft | 468 kts | 323° |